Terminal Aerodrome Forecast
Issued by NWS Flagstaff, AZ

Home | Current Version | Previous Version | Text Only | Print | Product List | Glossary On
Versions: 1 2 3 4 5 6 7 8 9 10 11 12 13 14 15
000
FTUS45 KFGZ 291120
TAFFLG
TAF
KFLG 291120Z 2912/3012 05008KT P6SM SCT060
     FM291500 03016G26KT P6SM SCT070
     FM300200 04007KT P6SM SCT080=

USA.gov is the U.S. government's official web portal to all federal, state and local government web resources and services.